Time;durP1;ratioP1;P1;durP2;ratioP2;P2;SDS_P1;SDS_P2;PMS_P1;PMS_P2;Temp;Humidity;BMP_temperature;BMP_pressure;BME280_temperature;BME280_humidity;BME280_pressure;Samples;Min_cycle;Max_cycle;Signal;HPM_P1;HPM_P2
2021/01/07 00:00:52;;;;;;;27.17;6.28;;;;;;;8.19;100.00;100996.41;1762435;81;21462;-61
2021/01/07 00:03:20;;;;;;;21.15;7.00;;;;;;;8.18;100.00;100993.33;1793888;80;22392;-61
2021/01/07 00:05:47;;;;;;;27.32;8.18;;;;;;;8.19;100.00;100999.08;1762448;81;21160;-61
2021/01/07 00:08:15;;;;;;;22.02;6.78;;;;;;;8.19;100.00;100986.20;1793741;80;21444;-60
2021/01/07 00:10:43;;;;;;;21.95;7.65;;;;;;;8.19;100.00;100986.20;1762416;81;21161;-61
2021/01/07 00:13:11;;;;;;;21.82;7.40;;;;;;;8.23;100.00;100992.76;1793708;80;21094;-61
2021/01/07 00:15:39;;;;;;;20.45;6.70;;;;;;;8.27;100.00;100994.45;1762407;81;21477;-61
2021/01/07 00:18:06;;;;;;;21.55;7.17;;;;;;;8.30;100.00;100991.73;1793716;80;21134;-61
2021/01/07 00:20:33;;;;;;;16.65;6.67;;;;;;;8.34;100.00;100975.16;1762389;81;21145;-60
2021/01/07 00:23:01;;;;;;;21.25;7.50;;;;;;;8.37;100.00;100971.56;1793645;80;21126;-61
2021/01/07 00:25:28;;;;;;;26.65;6.60;;;;;;;8.39;100.00;100971.92;1762397;81;21070;-61
2021/01/07 00:27:56;;;;;;;18.10;6.83;;;;;;;8.43;100.00;100974.08;1793683;80;21324;-60
2021/01/07 00:30:23;;;;;;;19.87;7.22;;;;;;;8.45;100.00;100983.83;1762266;81;21196;-61
2021/01/07 00:32:51;;;;;;;22.48;6.72;;;;;;;8.49;100.00;100977.08;1793724;80;21059;-61
2021/01/07 00:35:19;;;;;;;46.65;10.35;;;;;;;8.50;100.00;100985.08;1762338;81;21053;-61
2021/01/07 00:37:46;;;;;;;22.67;7.53;;;;;;;8.53;100.00;100972.11;1794890;79;21224;-61
2021/01/07 00:40:14;;;;;;;31.02;7.55;;;;;;;8.55;100.00;100973.85;1795511;79;21442;-61
2021/01/07 00:42:43;;;;;;;16.45;6.55;;;;;;;8.56;100.00;100970.27;1795608;79;21130;-61
2021/01/07 00:45:12;;;;;;;23.25;6.80;;;;;;;8.57;100.00;100958.66;1795648;79;21069;-60
2021/01/07 00:47:39;;;;;;;27.15;7.50;;;;;;;8.58;100.00;100973.77;1795699;80;21096;-61
2021/01/07 00:50:09;;;;;;;22.70;7.05;;;;;;;8.57;100.00;100958.66;1795654;80;21139;-60
2021/01/07 00:52:36;;;;;;;22.02;7.67;;;;;;;8.59;100.00;100962.61;1795681;80;21360;-61
2021/01/07 00:55:06;;;;;;;36.42;8.25;;;;;;;8.60;100.00;100962.59;1743131;80;21169;-61
2021/01/07 00:57:33;;;;;;;23.10;7.55;;;;;;;8.63;100.00;100966.10;1769056;79;21550;-61
2021/01/07 01:00:03;;;;;;;29.67;8.20;;;;;;;8.64;100.00;100968.75;1795836;79;21047;-61
2021/01/07 01:02:31;;;;;;;22.77;7.05;;;;;;;8.67;100.00;100973.13;1795809;79;21123;-60
2021/01/07 01:04:58;;;;;;;15.48;7.00;;;;;;;8.70;100.00;100973.95;1795869;79;21362;-61
2021/01/07 01:07:26;;;;;;;26.50;7.55;;;;;;;8.72;100.00;100967.20;1795756;79;21120;-61
2021/01/07 01:09:54;;;;;;;29.30;8.33;;;;;;;8.75;100.00;100963.16;1795851;79;21140;-60
2021/01/07 01:12:22;;;;;;;21.87;7.53;;;;;;;8.76;100.00;100963.57;1795822;79;21132;-61
2021/01/07 01:14:49;;;;;;;24.23;7.80;;;;;;;8.77;100.00;100961.31;1795906;79;21032;-61
2021/01/07 01:17:17;;;;;;;20.68;8.05;;;;;;;8.77;100.00;100958.64;1795677;79;21364;-61
2021/01/07 01:19:45;;;;;;;27.20;8.03;;;;;;;8.75;100.00;100948.45;1795797;79;21110;-60
2021/01/07 01:22:12;;;;;;;32.75;8.18;;;;;;;8.73;100.00;100938.22;1795784;79;21079;-61
2021/01/07 01:24:40;;;;;;;24.40;7.67;;;;;;;8.71;100.00;100934.71;1795883;79;21044;-61
2021/01/07 01:27:08;;;;;;;27.13;7.53;;;;;;;8.71;100.00;100934.71;1795785;79;21128;-60
2021/01/07 01:29:35;;;;;;;24.25;7.05;;;;;;;8.69;100.00;100920.50;1795811;79;21191;-61
2021/01/07 01:32:04;;;;;;;17.52;6.95;;;;;;;8.68;100.00;100910.73;1795777;79;21113;-61
2021/01/07 01:34:32;;;;;;;22.00;7.55;;;;;;;8.65;100.00;100905.47;1795814;79;21503;-61
2021/01/07 01:37:05;;;;;;;23.60;6.90;;;;;;;8.63;100.00;100888.59;1795239;79;21095;-61
2021/01/07 01:39:32;;;;;;;21.15;7.85;;;;;;;8.63;100.00;100880.57;1760496;81;21470;-60
2021/01/07 01:42:00;;;;;;;20.80;7.10;;;;;;;8.59;100.00;100877.98;1776934;80;21344;-61
2021/01/07 01:44:27;;;;;;;21.48;7.15;;;;;;;8.57;100.00;100880.26;1756696;81;21132;-60
2021/01/07 01:46:54;;;;;;;21.05;7.03;;;;;;;8.54;100.00;100869.20;1776954;80;21076;-61
2021/01/07 01:49:22;;;;;;;21.52;6.50;;;;;;;8.53;100.00;100863.88;1777006;80;21496;-61
2021/01/07 01:51:49;;;;;;;20.20;7.47;;;;;;;8.50;100.00;100859.48;1756910;81;21470;-61
2021/01/07 01:54:17;;;;;;;26.33;7.65;;;;;;;8.50;100.00;100863.48;1776928;80;21377;-61
2021/01/07 01:56:48;;;;;;;20.90;8.00;;;;;;;8.46;100.00;100876.03;1776910;80;21460;-60
2021/01/07 01:59:15;;;;;;;21.73;7.28;;;;;;;8.42;100.00;100888.16;1747169;80;21146;-61
2021/01/07 02:01:44;;;;;;;28.45;7.67;;;;;;;8.36;100.00;100882.50;1756784;81;21026;-61
2021/01/07 02:04:12;;;;;;;28.25;7.83;;;;;;;8.33;100.00;100866.55;1770941;81;21052;-61
2021/01/07 02:06:41;;;;;;;29.87;7.70;;;;;;;8.31;100.00;100873.28;1756727;81;21200;-61
2021/01/07 02:09:09;;;;;;;26.00;7.40;;;;;;;8.34;100.00;100871.45;1776834;80;21067;-61
2021/01/07 02:11:37;;;;;;;26.82;7.03;;;;;;;8.36;100.00;100861.59;1776832;80;21094;-60
2021/01/07 02:14:05;;;;;;;23.42;7.62;;;;;;;8.36;100.00;100860.27;1756771;81;21581;-61
2021/01/07 02:16:32;;;;;;;23.32;6.92;;;;;;;8.36;100.00;100857.59;1770841;80;21048;-61
2021/01/07 02:19:00;;;;;;;25.27;7.65;;;;;;;8.36;100.00;100866.94;1756909;81;22235;-61
2021/01/07 02:21:27;;;;;;;27.02;7.45;;;;;;;8.38;100.00;100862.44;1776801;80;21111;-62
2021/01/07 02:23:55;;;;;;;24.00;7.83;;;;;;;8.41;100.00;100858.35;1756845;81;21125;-61
2021/01/07 02:26:23;;;;;;;27.90;8.20;;;;;;;8.43;100.00;100847.16;1770811;80;21056;-61
2021/01/07 02:28:51;;;;;;;30.25;7.90;;;;;;;8.44;100.00;100839.12;1756798;81;21061;-61
2021/01/07 02:31:19;;;;;;;20.95;7.10;;;;;;;8.45;100.00;100839.98;1770908;81;21274;-61
2021/01/07 02:33:47;;;;;;;32.83;7.87;;;;;;;8.47;100.00;100832.81;1756711;81;21120;-61
2021/01/07 02:36:14;;;;;;;21.95;7.60;;;;;;;8.47;100.00;100832.81;1776951;80;21163;-61
2021/01/07 02:38:42;;;;;;;25.45;7.15;;;;;;;8.49;100.00;100822.09;1776754;80;21072;-62
2021/01/07 02:41:11;;;;;;;31.40;8.65;;;;;;;8.49;100.00;100826.96;1761790;81;21049;-61
2021/01/07 02:43:38;;;;;;;17.73;7.00;;;;;;;8.50;100.00;100825.22;1773876;80;21336;-61
2021/01/07 02:46:06;;;;;;;26.68;7.40;;;;;;;8.48;100.00;100829.22;1762431;81;21200;-61
2021/01/07 02:48:34;;;;;;;25.72;7.60;;;;;;;8.48;100.00;100821.20;1793793;80;21145;-60
2021/01/07 02:51:01;;;;;;;30.50;7.70;;;;;;;8.49;100.00;100819.42;1762483;81;20989;-62
2021/01/07 02:53:29;;;;;;;26.15;7.58;;;;;;;8.50;100.00;100819.39;1793790;80;21125;-62
2021/01/07 02:55:57;;;;;;;26.75;7.85;;;;;;;8.54;100.00;100818.42;1762419;81;21752;-62
2021/01/07 02:58:26;;;;;;;22.45;7.70;;;;;;;8.63;100.00;100809.74;1791057;80;21130;-61
2021/01/07 03:00:54;;;;;;;29.37;7.92;;;;;;;8.68;100.00;100809.16;1780187;80;21170;-61
2021/01/07 03:03:21;;;;;;;21.85;7.22;;;;;;;8.76;100.00;100804.51;1780206;80;21055;-60
2021/01/07 03:05:49;;;;;;;28.55;7.60;;;;;;;8.83;100.00;100795.39;1762319;81;21054;-61
2021/01/07 03:08:16;;;;;;;29.90;9.10;;;;;;;8.92;100.00;100794.27;1793840;80;21349;-61
2021/01/07 03:10:44;;;;;;;23.38;8.15;;;;;;;8.98;100.00;100802.59;1762345;81;21030;-62
2021/01/07 03:13:12;;;;;;;20.50;7.40;;;;;;;9.00;100.00;100792.72;1793766;80;21055;-61
2021/01/07 03:15:39;;;;;;;22.67;8.03;;;;;;;9.01;100.00;100785.12;1762392;81;21075;-61
2021/01/07 03:18:07;;;;;;;24.50;7.97;;;;;;;9.04;100.00;100781.02;1793742;80;21130;-61
2021/01/07 03:20:35;;;;;;;23.10;7.95;;;;;;;9.04;100.00;100763.63;1762326;81;21371;-61
2021/01/07 03:23:02;;;;;;;24.72;7.78;;;;;;;9.11;100.00;100761.66;1793724;80;21090;-61
2021/01/07 03:25:30;;;;;;;28.62;7.85;;;;;;;9.16;100.00;100775.77;1762427;81;21054;-62
2021/01/07 03:27:58;;;;;;;29.12;7.90;;;;;;;9.18;100.00;100776.61;1764483;80;21114;-60
2021/01/07 03:30:25;;;;;;;30.08;7.83;;;;;;;9.17;100.00;100771.73;1762391;81;21105;-61
2021/01/07 03:32:53;;;;;;;21.42;7.97;;;;;;;9.19;100.00;100758.77;1793735;80;21408;-61
2021/01/07 03:35:20;;;;;;;26.17;8.55;;;;;;;9.21;100.00;100755.11;1762402;81;21049;-61
2021/01/07 03:37:48;;;;;;;22.45;8.78;;;;;;;9.24;100.00;100764.86;1794886;79;21582;-63
2021/01/07 03:40:16;;;;;;;25.23;9.63;;;;;;;9.23;100.00;100771.99;1795608;79;21143;-60
2021/01/07 03:42:43;;;;;;;29.00;9.30;;;;;;;9.22;100.00;100780.08;1795709;79;21052;-61
2021/01/07 03:45:13;;;;;;;31.45;8.40;;;;;;;9.20;100.00;100781.45;1795765;79;21381;-62
2021/01/07 03:47:40;;;;;;;27.50;8.03;;;;;;;9.20;100.00;100776.58;1795655;79;21217;-61
2021/01/07 03:50:10;;;;;;;30.88;8.48;;;;;;;9.21;100.00;100767.62;1795841;79;21214;-61
2021/01/07 03:52:38;;;;;;;26.97;8.58;;;;;;;9.24;100.00;100762.19;1795764;79;21572;-61
2021/01/07 03:55:07;;;;;;;24.77;8.08;;;;;;;9.26;100.00;100763.02;1795645;79;21118;-61
2021/01/07 03:57:35;;;;;;;24.63;8.50;;;;;;;9.27;100.00;100763.42;1795683;79;21425;-61
2021/01/07 04:00:05;;;;;;;25.17;8.45;;;;;;;9.27;100.00;100764.28;1795617;79;21072;-61
2021/01/07 04:02:33;;;;;;;27.77;8.48;;;;;;;9.29;100.00;100769.16;1769489;79;21499;-61
2021/01/07 04:05:01;;;;;;;21.80;7.70;;;;;;;9.32;100.00;100765.50;1795599;79;21068;-61
2021/01/07 04:07:29;;;;;;;24.82;8.43;;;;;;;9.36;100.00;100757.79;1795769;79;21084;-62
2021/01/07 04:09:56;;;;;;;27.62;8.60;;;;;;;9.43;100.00;100771.42;1795637;79;21384;-62
2021/01/07 04:12:24;;;;;;;25.57;8.13;;;;;;;9.46;100.00;100763.30;1795685;79;21048;-61
2021/01/07 04:14:53;;;;;;;21.68;7.87;;;;;;;9.48;100.00;100777.09;1794155;79;21095;-61
2021/01/07 04:17:21;;;;;;;24.02;7.50;;;;;;;9.46;100.00;100771.33;1795709;79;21071;-61
2021/01/07 04:19:48;;;;;;;30.20;7.65;;;;;;;9.45;100.00;100765.56;1795683;79;21144;-60
2021/01/07 04:22:16;;;;;;;22.65;7.45;;;;;;;9.46;100.00;100768.66;1795735;79;21381;-61
2021/01/07 04:24:44;;;;;;;29.55;8.33;;;;;;;9.49;100.00;100761.45;1795622;79;21067;-61
2021/01/07 04:27:11;;;;;;;23.45;8.20;;;;;;;9.53;100.00;100765.78;1795672;79;21060;-61
2021/01/07 04:29:39;;;;;;;21.52;7.50;;;;;;;9.55;100.00;100758.58;1795672;79;21072;-61
2021/01/07 04:32:07;;;;;;;24.05;7.50;;;;;;;9.56;100.00;100760.33;1795735;79;21123;-61
2021/01/07 04:34:34;;;;;;;22.67;7.20;;;;;;;9.55;100.00;100762.59;1795744;79;21213;-61
2021/01/07 04:37:02;;;;;;;22.55;7.60;;;;;;;9.51;100.00;100755.59;1795258;79;21736;-62
2021/01/07 04:39:29;;;;;;;19.87;7.15;;;;;;;9.50;100.00;100751.16;1762428;81;21177;-60
2021/01/07 04:41:56;;;;;;;30.90;7.70;;;;;;;9.50;100.00;100744.47;1778045;80;21206;-61
2021/01/07 04:44:24;;;;;;;23.95;6.62;;;;;;;9.52;100.00;100747.52;1756799;81;21165;-61
2021/01/07 04:46:52;;;;;;;23.32;6.83;;;;;;;9.53;100.00;100747.05;1776817;80;21352;-61
2021/01/07 04:49:19;;;;;;;27.37;6.55;;;;;;;9.52;100.00;100746.63;1756620;81;21019;-61
2021/01/07 04:51:47;;;;;;;27.17;7.37;;;;;;;9.53;100.00;100750.61;1776789;80;21130;-61
2021/01/07 04:54:14;;;;;;;25.37;7.35;;;;;;;9.56;100.00;100750.52;1727325;81;21144;-61
2021/01/07 04:56:42;;;;;;;29.72;7.95;;;;;;;9.58;100.00;100752.68;1776813;80;21000;-61
2021/01/07 04:59:11;;;;;;;28.75;8.08;;;;;;;9.57;100.00;100752.27;1756618;81;21354;-61
2021/01/07 05:01:41;;;;;;;27.10;7.05;;;;;;;9.55;100.00;100745.19;1776732;80;21143;-60
2021/01/07 05:04:11;;;;;;;26.15;7.45;;;;;;;9.57;100.00;100740.66;1776688;80;21203;-61
2021/01/07 05:06:39;;;;;;;23.87;7.40;;;;;;;9.58;100.00;100744.65;1756745;81;21117;-61
2021/01/07 05:09:07;;;;;;;24.52;8.05;;;;;;;9.57;100.00;100739.33;1776771;80;21146;-61
2021/01/07 05:11:35;;;;;;;31.10;7.80;;;;;;;9.56;100.00;100738.91;1756791;81;22268;-61
2021/01/07 05:14:05;;;;;;;24.12;7.72;;;;;;;9.57;100.00;100741.56;1770664;81;21080;-61
2021/01/07 05:16:32;;;;;;;28.57;7.50;;;;;;;9.55;100.00;100743.86;1756685;81;21074;-61
2021/01/07 05:19:06;;;;;;;22.80;7.45;;;;;;;9.52;100.00;100743.51;1776712;80;21067;-61
2021/01/07 05:21:36;;;;;;;30.35;8.18;;;;;;;9.50;100.00;100735.09;1776806;80;21115;-60
2021/01/07 05:24:05;;;;;;;28.70;9.00;;;;;;;9.45;100.00;100742.81;1756682;81;21712;-61
2021/01/07 05:26:34;;;;;;;25.45;6.60;;;;;;;9.47;100.00;100729.37;1776808;80;21103;-61
2021/01/07 05:29:01;;;;;;;22.05;6.90;;;;;;;9.49;100.00;100711.94;1756663;81;20919;-61
2021/01/07 05:31:29;;;;;;;20.32;6.40;;;;;;;9.49;100.00;100715.95;1776459;80;21076;-61
2021/01/07 05:33:57;;;;;;;24.57;7.83;;;;;;;9.52;100.00;100717.19;1776798;80;21098;-61
2021/01/07 05:36:32;;;;;;;29.95;8.95;;;;;;;9.56;100.00;100713.48;1756624;81;21442;-62
2021/01/07 05:39:05;;;;;;;21.95;6.42;;;;;;;9.59;100.00;100706.69;1780991;80;21160;-62
2021/01/07 05:41:33;;;;;;;20.80;5.95;;;;;;;9.59;100.00;100712.05;1780779;79;21164;-61
2021/01/07 05:44:03;;;;;;;19.85;6.25;;;;;;;9.56;100.00;100710.36;1750801;80;21070;-62
2021/01/07 05:46:31;;;;;;;27.13;6.22;;;;;;;9.58;100.00;100707.63;1781005;80;21034;-61
2021/01/07 05:48:59;;;;;;;26.10;6.80;;;;;;;9.65;100.00;100701.17;1781045;80;21190;-62
2021/01/07 05:51:28;;;;;;;21.93;7.58;;;;;;;9.66;100.00;100700.69;1781044;80;21102;-60
2021/01/07 05:53:59;;;;;;;17.10;6.60;;;;;;;9.66;100.00;100697.56;1780976;80;21145;-61
2021/01/07 05:56:26;;;;;;;20.77;6.47;;;;;;;9.67;100.00;100685.93;1780998;80;21160;-61
2021/01/07 05:58:55;;;;;;;19.23;6.15;;;;;;;9.67;100.00;100688.61;1781029;80;21160;-62
2021/01/07 06:01:23;;;;;;;20.62;6.55;;;;;;;9.68;100.00;100693.03;1781128;80;21859;-61
2021/01/07 06:03:54;;;;;;;23.02;6.83;;;;;;;9.72;100.00;100699.14;1780946;80;21192;-62
2021/01/07 06:06:23;;;;;;;25.97;6.67;;;;;;;9.77;100.00;100702.58;1781102;80;21098;-61
2021/01/07 06:08:57;;;;;;;18.82;6.28;;;;;;;9.80;99.92;100689.53;1780973;80;21066;-62
2021/01/07 06:11:25;;;;;;;27.17;7.40;;;;;;;9.81;99.72;100689.50;1781345;80;21149;-61
2021/01/07 06:13:53;;;;;;;21.75;5.90;;;;;;;9.83;99.47;100690.77;1781146;80;21493;-61
2021/01/07 06:16:23;;;;;;;19.12;5.40;;;;;;;9.82;99.24;100687.23;1750815;80;21049;-61
2021/01/07 06:18:53;;;;;;;25.32;5.47;;;;;;;9.82;99.00;100688.56;1780864;80;21074;-61
2021/01/07 06:21:24;;;;;;;21.80;5.37;;;;;;;9.83;98.92;100683.63;1781142;79;22190;-61
2021/01/07 06:23:54;;;;;;;15.93;5.67;;;;;;;9.85;98.76;100687.60;1751512;80;21117;-61
2021/01/07 06:26:27;;;;;;;20.92;5.80;;;;;;;9.85;98.47;100683.59;1751319;80;21379;-60
2021/01/07 06:29:02;;;;;;;22.15;5.75;;;;;;;9.86;98.18;100681.32;1781014;80;21175;-61
2021/01/07 06:31:36;;;;;;;27.30;6.25;;;;;;;9.85;98.01;100683.59;1781229;80;21030;-61
2021/01/07 06:34:04;;;;;;;;;;;;;;;9.87;98.08;100677.71;1783709;80;21054;-61
2021/01/07 06:36:45;;;;;;;17.17;4.92;;;;;;;9.89;97.80;100675.86;1780630;80;20214;-61
2021/01/07 06:39:10;;;;;;;18.35;5.50;;;;;;;9.89;97.61;100672.70;1776373;80;22706;-61
2021/01/07 06:41:38;;;;;;;18.12;5.70;;;;;;;9.92;97.53;100665.48;1759587;81;22243;-60
2021/01/07 06:44:05;;;;;;;17.62;5.28;;;;;;;9.95;97.62;100674.30;1793892;80;21788;-62
2021/01/07 06:46:39;;;;;;;13.75;4.67;;;;;;;9.98;97.40;100664.81;1762496;81;21161;-61
2021/01/07 06:49:26;;;;;;;15.15;4.40;;;;;;;10.02;97.13;100661.10;1773853;80;21107;-61
2021/01/07 06:52:05;;;;;;;21.25;5.58;;;;;;;10.07;97.12;100666.31;1762495;81;21158;-61
2021/01/07 06:54:40;;;;;;;24.47;5.03;;;;;;;10.14;96.82;100671.00;1793841;80;21225;-61
2021/01/07 06:57:10;;;;;;;22.05;4.92;;;;;;;10.16;96.37;100677.18;1762503;81;21560;-61
2021/01/07 06:59:58;;;;;;;16.97;5.47;;;;;;;10.16;96.12;100663.78;1765160;80;21574;-61
2021/01/07 07:02:27;;;;;;;17.52;5.42;;;;;;;10.19;96.02;100674.39;1724602;81;21113;-60
2021/01/07 07:05:11;;;;;;;20.92;6.03;;;;;;;10.18;95.67;100660.13;1773970;80;21400;-61
2021/01/07 07:07:53;;;;;;;14.18;4.95;;;;;;;10.18;95.58;100663.27;1762295;81;21133;-60
2021/01/07 07:10:38;;;;;;;19.23;5.12;;;;;;;10.20;95.87;100646.66;1793502;80;21209;-61
2021/01/07 07:13:22;;;;;;;17.48;5.30;;;;;;;10.23;95.64;100651.91;1762576;81;21136;-61
2021/01/07 07:15:49;;;;;;;15.05;4.90;;;;;;;10.20;95.52;100643.98;1773781;80;21086;-60
2021/01/07 07:18:34;;;;;;;20.97;5.10;;;;;;;10.18;95.76;100636.02;1762425;81;21373;-60
2021/01/07 07:21:20;;;;;;;21.47;5.93;;;;;;;10.24;96.06;100636.73;1773996;80;21088;-61
2021/01/07 07:23:47;;;;;;;21.25;5.67;;;;;;;10.28;96.10;100628.53;1762448;81;21137;-61
2021/01/07 07:26:34;;;;;;;20.48;5.42;;;;;;;10.32;96.22;100624.81;1793713;80;21161;-61
2021/01/07 07:29:12;;;;;;;24.12;5.37;;;;;;;10.37;96.00;100617.06;1762554;81;21525;-61
2021/01/07 07:31:46;;;;;;;20.50;5.40;;;;;;;10.35;95.71;100621.13;1793737;80;21451;-60
2021/01/07 07:34:15;;;;;;;22.20;5.75;;;;;;;10.34;95.75;100611.81;1762478;81;21077;-61
2021/01/07 07:36:42;;;;;;;15.43;5.10;;;;;;;10.36;95.73;100612.64;1794081;79;21163;-61
2021/01/07 07:39:11;;;;;;;16.17;5.50;;;;;;;10.35;95.59;100609.06;1795625;79;21124;-61
2021/01/07 07:41:44;;;;;;;20.80;6.10;;;;;;;10.37;95.45;100604.52;1795643;79;21147;-61
2021/01/07 07:44:14;;;;;;;21.93;6.03;;;;;;;10.38;95.13;100608.09;1795964;79;22104;-61
2021/01/07 07:46:43;;;;;;;25.82;6.00;;;;;;;10.33;94.90;100601.55;1795770;79;21484;-61
2021/01/07 07:49:11;;;;;;;26.68;5.33;;;;;;;10.29;94.73;100594.11;1795721;79;21230;-61
2021/01/07 07:51:40;;;;;;;25.85;6.35;;;;;;;10.29;95.01;100595.45;1795771;79;21139;-61
2021/01/07 07:54:11;;;;;;;29.18;6.28;;;;;;;10.34;95.22;100587.70;1795665;79;21147;-61
2021/01/07 07:56:40;;;;;;;25.15;6.60;;;;;;;10.37;94.95;100590.27;1795755;79;21544;-61
2021/01/07 07:59:10;;;;;;;27.25;7.50;;;;;;;10.37;94.83;100575.52;1795663;79;21111;-61
2021/01/07 08:01:44;;;;;;;22.87;5.42;;;;;;;10.38;94.98;100582.63;1795716;79;21213;-61
2021/01/07 08:04:17;;;;;;;23.67;5.35;;;;;;;10.43;94.97;100582.02;1795697;79;21106;-61
2021/01/07 08:06:46;;;;;;;18.50;6.00;;;;;;;10.46;94.71;100575.20;1795643;79;21143;-61
2021/01/07 08:09:21;;;;;;;23.87;6.33;;;;;;;10.45;94.62;100574.34;1795831;79;22322;-61
2021/01/07 08:11:52;;;;;;;25.23;6.62;;;;;;;10.48;94.63;100567.97;1795752;79;21139;-61
2021/01/07 08:14:25;;;;;;;22.27;6.17;;;;;;;10.46;94.26;100569.84;1795737;79;21069;-60
2021/01/07 08:16:59;;;;;;;28.80;6.55;;;;;;;10.41;94.40;100556.63;1795662;79;21112;-60
2021/01/07 08:19:33;;;;;;;22.30;5.58;;;;;;;10.43;94.58;100557.45;1795816;79;21108;-61
2021/01/07 08:22:02;;;;;;;18.15;5.70;;;;;;;10.43;94.56;100561.47;1795813;79;21193;-61
2021/01/07 08:24:29;;;;;;;21.00;6.78;;;;;;;10.41;94.48;100553.95;1795763;79;21472;-61
2021/01/07 08:27:19;;;;;;;21.95;6.80;;;;;;;10.39;94.66;100544.17;1795663;79;21139;-61
2021/01/07 08:29:49;;;;;;;20.92;6.33;;;;;;;10.37;94.84;100544.70;1795763;79;21530;-61
2021/01/07 08:32:19;;;;;;;23.73;6.45;;;;;;;10.34;95.05;100538.13;1769857;79;21179;-61
2021/01/07 08:34:46;;;;;;;26.45;6.65;;;;;;;10.31;95.43;100540.44;1795409;79;21262;-61
2021/01/07 08:37:17;;;;;;;26.68;5.97;;;;;;;10.31;95.58;100548.03;1794979;79;21066;-60
2021/01/07 08:39:44;;;;;;;24.87;7.28;;;;;;;10.32;95.80;100543.08;1762260;81;21059;-61
2021/01/07 08:42:14;;;;;;;26.97;7.37;;;;;;;10.28;95.74;100534.75;1793531;80;21063;-60
2021/01/07 08:44:42;;;;;;;17.55;6.75;;;;;;;10.26;95.91;100542.42;1762228;81;21057;-61
2021/01/07 08:47:21;;;;;;;23.35;7.65;;;;;;;10.21;95.99;100538.56;1762276;81;21443;-62
2021/01/07 08:50:04;;;;;;;21.68;6.47;;;;;;;10.17;96.24;100526.22;1773749;80;21142;-62
2021/01/07 08:52:58;;;;;;;27.00;6.70;;;;;;;10.12;96.56;100519.69;1762446;81;22188;-61
2021/01/07 08:55:49;;;;;;;22.55;6.90;;;;;;;10.09;96.91;100525.16;1793779;80;21114;-62
2021/01/07 08:58:23;;;;;;;25.27;7.72;;;;;;;10.03;97.30;100519.55;1762418;81;21093;-62
2021/01/07 09:00:52;;;;;;;27.02;7.83;;;;;;;10.02;97.82;100511.11;1762275;81;21431;-61
2021/01/07 09:03:20;;;;;;;24.67;7.20;;;;;;;10.03;98.15;100508.84;1793653;80;21078;-61
2021/01/07 09:05:47;;;;;;;23.60;8.40;;;;;;;10.03;98.42;100502.14;1762299;81;21121;-61
2021/01/07 09:08:15;;;;;;;19.95;6.95;;;;;;;10.04;98.70;100493.17;1793715;80;21169;-60
2021/01/07 09:10:42;;;;;;;23.27;6.95;;;;;;;10.06;99.10;100493.58;1762339;81;21037;-60
2021/01/07 09:13:22;;;;;;;20.65;6.92;;;;;;;10.07;99.42;100484.64;1793760;80;21448;-61
2021/01/07 09:15:50;;;;;;;23.62;6.60;;;;;;;10.10;99.67;100480.02;1762276;81;21057;-61
2021/01/07 09:18:21;;;;;;;19.17;6.70;;;;;;;10.14;99.93;100488.83;1793812;80;21134;-61
2021/01/07 09:20:48;;;;;;;18.67;7.08;;;;;;;10.17;100.00;100487.38;1762351;81;21141;-61
2021/01/07 09:23:16;;;;;;;18.30;6.75;;;;;;;10.20;100.00;100484.58;1793898;80;21122;-61
2021/01/07 09:25:47;;;;;;;15.70;5.80;;;;;;;10.24;100.00;100482.19;1762638;81;22269;-61
2021/01/07 09:28:15;;;;;;;20.82;6.20;;;;;;;10.29;100.00;100487.38;1773979;80;21505;-60
2021/01/07 09:30:42;;;;;;;12.85;5.60;;;;;;;10.31;100.00;100483.72;1762586;81;21169;-60
2021/01/07 09:33:10;;;;;;;20.92;6.20;;;;;;;10.35;99.93;100478.23;1793841;80;21142;-61
2021/01/07 09:35:37;;;;;;;18.50;6.83;;;;;;;10.38;99.82;100470.07;1762481;81;21157;-61
2021/01/07 09:38:05;;;;;;;21.90;6.70;;;;;;;10.39;99.70;100471.81;1795220;79;21193;-61
2021/01/07 09:40:33;;;;;;;21.70;6.62;;;;;;;10.40;99.53;100466.45;1744593;79;21159;-61
2021/01/07 09:43:01;;;;;;;21.27;6.58;;;;;;;10.40;99.23;100462.84;1779577;79;21147;-62
2021/01/07 09:45:29;;;;;;;20.05;6.67;;;;;;;10.37;99.06;100457.61;1770920;81;21119;-61
2021/01/07 09:47:57;;;;;;;19.60;6.55;;;;;;;10.32;98.74;100453.30;1770919;81;21127;-61
2021/01/07 09:50:25;;;;;;;21.30;6.72;;;;;;;10.28;98.71;100440.97;1770924;81;21162;-60
2021/01/07 09:52:52;;;;;;;20.72;7.08;;;;;;;10.25;98.92;100439.72;1770832;81;21071;-61
2021/01/07 09:55:20;;;;;;;18.70;7.87;;;;;;;10.23;99.09;100433.55;1770924;81;21064;-60
2021/01/07 09:57:49;;;;;;;18.62;7.60;;;;;;;10.22;99.23;100428.27;1770863;81;21133;-60
2021/01/07 10:00:18;;;;;;;15.18;6.70;;;;;;;10.19;99.40;100417.19;1770866;80;21115;-61
2021/01/07 10:02:46;;;;;;;15.63;6.33;;;;;;;10.19;99.64;100414.52;1770915;80;21194;-61
2021/01/07 10:05:14;;;;;;;17.02;5.75;;;;;;;10.22;99.82;100417.55;1770841;81;21064;-60
2021/01/07 10:07:41;;;;;;;16.70;5.87;;;;;;;10.23;99.90;100412.12;1770933;81;21072;-61
2021/01/07 10:10:11;;;;;;;13.68;6.20;;;;;;;10.26;99.84;100407.11;1770816;81;21040;-61
2021/01/07 10:12:38;;;;;;;20.05;7.12;;;;;;;10.27;99.93;100394.13;1770961;81;21116;-61
2021/01/07 10:15:08;;;;;;;17.62;7.05;;;;;;;10.31;100.00;100383.69;1770811;80;21535;-60
2021/01/07 10:17:36;;;;;;;26.42;7.20;;;;;;;10.37;100.00;100374.53;1770920;81;21211;-62
2021/01/07 10:20:06;;;;;;;24.10;7.15;;;;;;;10.48;100.00;100374.98;1770780;81;21191;-62
2021/01/07 10:22:34;;;;;;;19.42;6.80;;;;;;;10.55;100.00;100365.78;1770924;81;21143;-61
2021/01/07 10:25:04;;;;;;;22.82;6.25;;;;;;;10.66;100.00;100353.73;1727020;81;21048;-61
2021/01/07 10:27:31;;;;;;;20.68;7.70;;;;;;;10.79;100.00;100350.95;1751762;81;21440;-62
2021/01/07 10:29:59;;;;;;;18.60;6.78;;;;;;;10.97;100.00;100337.70;1770768;81;21111;-62
2021/01/07 10:32:27;;;;;;;15.48;6.17;;;;;;;11.11;100.00;100335.75;1770934;81;21148;-61
2021/01/07 10:34:54;;;;;;;14.50;6.42;;;;;;;11.22;99.76;100328.08;1770842;81;21076;-61
2021/01/07 10:37:23;;;;;;;19.65;6.10;;;;;;;11.35;99.54;100323.03;1773371;80;21075;-61
2021/01/07 10:39:53;;;;;;;14.90;6.40;;;;;;;11.50;99.20;100320.60;1756759;81;21377;-62
2021/01/07 10:42:22;;;;;;;13.03;6.15;;;;;;;11.62;98.54;100314.68;1771428;80;21103;-61
2021/01/07 10:44:51;;;;;;;22.45;7.15;;;;;;;11.71;97.67;100308.87;1762520;81;21136;-61
2021/01/07 10:47:19;;;;;;;19.70;6.92;;;;;;;11.75;96.98;100311.80;1793790;80;21154;-61
2021/01/07 10:49:47;;;;;;;18.45;6.92;;;;;;;11.82;96.62;100308.81;1762601;81;21459;-61
2021/01/07 10:52:37;;;;;;;20.68;7.28;;;;;;;11.88;96.29;100317.95;1793855;80;21480;-61
2021/01/07 10:55:20;;;;;;;20.55;8.15;;;;;;;11.93;96.02;100310.54;1762382;81;21112;-60
2021/01/07 10:58:22;;;;;;;23.75;8.00;;;;;;;11.92;94.90;100295.37;1765054;80;21142;-60
2021/01/07 11:01:16;;;;;;;20.05;7.90;;;;;;;11.83;94.41;100302.05;1762366;81;21067;-61
2021/01/07 11:04:15;;;;;;;24.30;7.12;;;;;;;11.73;94.33;100300.27;1793265;80;21490;-61
2021/01/07 11:06:50;;;;;;;25.02;7.78;;;;;;;11.67;94.26;100293.84;1762537;81;21403;-61
2021/01/07 11:09:19;;;;;;;18.87;8.10;;;;;;;11.60;94.23;100287.00;1793775;80;21169;-61
2021/01/07 11:11:50;;;;;;;23.12;8.25;;;;;;;11.57;94.36;100284.47;1762492;81;21153;-61
2021/01/07 11:14:24;;;;;;;25.48;8.63;;;;;;;11.53;94.25;100278.84;1792317;80;21143;-61
2021/01/07 11:16:55;;;;;;;22.62;8.38;;;;;;;11.43;94.12;100263.63;1762565;81;21478;-61
2021/01/07 11:19:23;;;;;;;25.10;9.03;;;;;;;11.32;94.16;100268.16;1793730;80;22258;-61
2021/01/07 11:22:02;;;;;;;26.17;8.55;;;;;;;11.22;94.34;100262.83;1762349;81;21090;-61
2021/01/07 11:24:29;;;;;;;24.47;8.33;;;;;;;11.16;94.64;100255.46;1793495;80;21141;-61
2021/01/07 11:26:58;;;;;;;23.42;8.35;;;;;;;11.15;94.97;100252.34;1762451;81;21110;-61
2021/01/07 11:29:26;;;;;;;29.50;9.23;;;;;;;11.13;95.00;100249.36;1793711;80;21141;-61